createdAt,value
2023-03-21T00:01:52.550Z,12.90
2023-03-21T00:04:21.077Z,12.97
2023-03-21T00:06:49.458Z,13.03
2023-03-21T00:09:17.964Z,13.10
2023-03-21T00:11:46.647Z,13.22
2023-03-21T00:14:20.303Z,13.34
2023-03-21T00:16:50.707Z,13.46
2023-03-21T00:19:20.846Z,13.57
2023-03-21T00:22:08.676Z,13.63
2023-03-21T00:24:38.327Z,13.70
2023-03-21T00:27:33.676Z,13.80
2023-03-21T00:29:56.853Z,13.87
2023-03-21T00:32:25.181Z,13.86
2023-03-21T00:35:23.352Z,13.82
2023-03-21T00:37:41.764Z,13.83
2023-03-21T00:40:23.022Z,13.87
2023-03-21T00:42:53.591Z,13.90
2023-03-21T00:45:23.397Z,13.91
2023-03-21T00:47:51.810Z,14.00
2023-03-21T00:50:20.438Z,14.06
2023-03-21T00:52:48.704Z,14.14
2023-03-21T00:55:18.256Z,14.21
2023-03-21T00:57:50.161Z,14.30
2023-03-21T01:00:23.056Z,14.36
2023-03-21T01:03:04.359Z,14.42
2023-03-21T01:05:57.351Z,14.51
2023-03-21T01:08:31.190Z,14.51
2023-03-21T01:11:05.516Z,14.54
2023-03-21T01:13:36.398Z,14.60
2023-03-21T01:16:08.583Z,14.68
2023-03-21T01:18:38.260Z,14.72
2023-03-21T01:21:09.628Z,14.77
2023-03-21T01:23:38.264Z,14.84
2023-03-21T01:26:07.083Z,14.86
2023-03-21T01:28:36.116Z,14.86
2023-03-21T01:31:06.753Z,14.89
2023-03-21T01:33:34.969Z,14.94
2023-03-21T01:36:12.752Z,14.90
2023-03-21T01:38:41.964Z,14.95
2023-03-21T01:41:20.067Z,15.00
2023-03-21T01:43:48.806Z,15.00
2023-03-21T01:46:51.499Z,15.04
2023-03-21T01:49:27.989Z,15.06
2023-03-21T01:52:06.555Z,15.07
2023-03-21T01:54:41.094Z,15.11
2023-03-21T01:57:11.371Z,15.11
2023-03-21T01:59:42.542Z,15.07
2023-03-21T02:02:13.827Z,15.08
2023-03-21T02:04:50.752Z,15.06
2023-03-21T02:07:23.175Z,15.04
2023-03-21T02:09:52.552Z,15.04
2023-03-21T02:12:21.382Z,15.05
2023-03-21T02:14:50.579Z,15.05
2023-03-21T02:17:27.007Z,15.07
2023-03-21T02:20:12.929Z,15.11
2023-03-21T02:23:11.317Z,15.16
2023-03-21T02:26:36.173Z,15.19
2023-03-21T02:29:15.401Z,15.20
2023-03-21T02:31:49.027Z,15.29
2023-03-21T02:34:37.180Z,15.31
2023-03-21T02:37:17.832Z,15.29
2023-03-21T02:40:11.059Z,15.25
2023-03-21T02:42:51.616Z,15.22
2023-03-21T02:45:28.033Z,15.18
2023-03-21T02:47:58.896Z,15.16
2023-03-21T02:50:30.004Z,15.13
2023-03-21T02:53:00.250Z,15.10
2023-03-21T02:55:30.558Z,15.03
2023-03-21T02:58:10.430Z,14.67
2023-03-21T03:00:42.928Z,14.59
2023-03-21T03:03:17.967Z,14.71
2023-03-21T03:05:50.927Z,14.93
2023-03-21T03:08:38.373Z,14.82
2023-03-21T03:11:16.131Z,14.79
2023-03-21T03:14:25.080Z,14.79
2023-03-21T03:17:02.547Z,14.67
2023-03-21T03:19:36.635Z,14.78
2023-03-21T03:22:11.957Z,14.78
2023-03-21T03:24:44.353Z,14.83
2023-03-21T03:27:17.691Z,14.91
2023-03-21T03:29:47.934Z,14.97
2023-03-21T03:32:18.631Z,15.02
2023-03-21T03:34:49.711Z,15.09
2023-03-21T03:37:21.737Z,15.14
2023-03-21T03:39:55.381Z,15.14
2023-03-21T03:42:28.667Z,15.18
2023-03-21T03:44:57.864Z,15.20
2023-03-21T03:47:34.885Z,15.22
2023-03-21T03:50:09.925Z,15.24
2023-03-21T03:52:53.600Z,15.27
2023-03-21T03:55:28.111Z,15.27
2023-03-21T03:57:56.943Z,15.27
2023-03-21T04:00:25.828Z,15.30
2023-03-21T04:02:54.236Z,15.21
2023-03-21T04:05:22.663Z,15.30
2023-03-21T04:07:51.270Z,15.30
2023-03-21T04:10:21.163Z,15.33
2023-03-21T04:12:51.107Z,15.33
2023-03-21T04:15:20.425Z,15.33
2023-03-21T04:17:48.839Z,15.34
2023-03-21T04:20:30.077Z,15.38
2023-03-21T04:23:02.326Z,15.42
2023-03-21T04:25:33.971Z,15.43
2023-03-21T04:28:04.044Z,15.42
2023-03-21T04:30:34.256Z,15.43
2023-03-21T04:33:02.555Z,15.50
2023-03-21T04:35:30.851Z,15.53
2023-03-21T04:37:59.178Z,15.55
2023-03-21T04:40:27.560Z,15.57
2023-03-21T04:42:55.857Z,15.55
2023-03-21T04:45:25.499Z,15.51
2023-03-21T04:47:53.814Z,15.52
2023-03-21T04:50:22.160Z,15.52
2023-03-21T04:52:50.455Z,15.51
2023-03-21T04:55:21.660Z,15.48
2023-03-21T04:57:50.030Z,15.47
2023-03-21T05:00:18.755Z,15.41
2023-03-21T05:02:48.437Z,15.26
2023-03-21T05:05:16.690Z,15.09
2023-03-21T05:07:45.197Z,15.02
2023-03-21T05:10:13.691Z,15.00
2023-03-21T05:12:42.297Z,14.95
2023-03-21T05:15:11.124Z,14.99
2023-03-21T05:17:39.365Z,15.02
2023-03-21T05:20:11.714Z,15.10
2023-03-21T05:22:41.365Z,15.17
2023-03-21T05:25:11.712Z,15.24
2023-03-21T05:27:45.163Z,15.32
2023-03-21T05:30:15.444Z,15.35
2023-03-21T05:32:43.977Z,15.42
2023-03-21T05:35:14.292Z,15.49
2023-03-21T05:37:42.666Z,15.56
2023-03-21T05:40:12.260Z,15.65
2023-03-21T05:42:40.582Z,15.72
2023-03-21T05:45:09.488Z,15.78
2023-03-21T05:47:37.735Z,15.75
2023-03-21T05:50:07.174Z,15.80
2023-03-21T05:52:36.936Z,15.78
2023-03-21T05:55:05.916Z,15.78
2023-03-21T05:57:39.096Z,15.78
2023-03-21T06:00:09.176Z,15.87
2023-03-21T06:02:37.944Z,15.96
2023-03-21T06:05:07.288Z,15.97
2023-03-21T06:07:37.113Z,16.08
2023-03-21T06:10:06.155Z,16.18
2023-03-21T06:12:34.451Z,16.17
2023-03-21T06:15:02.732Z,16.27
2023-03-21T06:17:30.984Z,16.31
2023-03-21T06:20:01.145Z,16.33
2023-03-21T06:22:29.477Z,16.24
2023-03-21T06:24:59.053Z,16.31
2023-03-21T06:27:27.414Z,16.40
2023-03-21T06:29:55.658Z,16.41
2023-03-21T06:32:23.919Z,16.52
2023-03-21T06:34:52.428Z,16.61
2023-03-21T06:37:21.225Z,16.71
2023-03-21T06:39:49.472Z,16.74
2023-03-21T06:42:19.042Z,16.87
2023-03-21T06:44:47.265Z,17.07
2023-03-21T06:47:15.720Z,17.43
2023-03-21T06:49:44.718Z,17.59
2023-03-21T06:52:12.974Z,17.68
2023-03-21T06:54:41.374Z,17.87
2023-03-21T06:57:09.647Z,18.17
2023-03-21T06:59:41.497Z,18.41
2023-03-21T07:02:11.223Z,18.68
2023-03-21T07:04:39.522Z,18.69
2023-03-21T07:07:07.795Z,18.88
2023-03-21T07:09:36.054Z,19.09
2023-03-21T07:12:04.438Z,19.14
2023-03-21T07:14:34.566Z,19.24
2023-03-21T07:17:04.202Z,19.39
2023-03-21T07:19:32.453Z,19.45
2023-03-21T07:22:01.580Z,19.45
2023-03-21T07:24:29.856Z,19.58
2023-03-21T07:26:58.089Z,19.63
2023-03-21T07:29:26.346Z,19.91
2023-03-21T07:31:54.682Z,19.92
2023-03-21T07:34:24.387Z,20.10
2023-03-21T07:36:52.639Z,20.17
2023-03-21T07:39:21.173Z,20.27
2023-03-21T07:41:49.400Z,20.34
2023-03-21T07:44:17.690Z,20.42
2023-03-21T07:46:45.899Z,20.47
2023-03-21T07:49:14.218Z,20.49
2023-03-21T07:51:43.895Z,20.42
2023-03-21T07:54:12.257Z,20.56
2023-03-21T07:56:40.580Z,20.51
2023-03-21T07:59:09.947Z,20.62
2023-03-21T08:01:38.280Z,20.53
2023-03-21T08:04:06.850Z,20.60
2023-03-21T08:09:18.699Z,20.57
2023-03-21T08:11:46.956Z,20.70
2023-03-21T08:14:15.363Z,20.93
2023-03-21T08:16:43.750Z,20.98
2023-03-21T08:19:12.043Z,21.25
2023-03-21T08:21:40.838Z,21.45
2023-03-21T08:24:09.180Z,21.37
2023-03-21T08:26:38.826Z,21.05
2023-03-21T08:29:07.450Z,21.30
2023-03-21T08:31:35.759Z,21.54
2023-03-21T08:34:04.332Z,21.72
2023-03-21T08:36:32.788Z,21.53
2023-03-21T08:39:05.516Z,21.88
2023-03-21T08:41:34.007Z,21.80
2023-03-21T08:44:03.762Z,21.99
2023-03-21T08:46:32.265Z,22.14
2023-03-21T08:49:00.765Z,22.23
2023-03-21T08:51:29.137Z,22.28
2023-03-21T08:53:57.409Z,22.41
2023-03-21T08:56:25.715Z,22.41
2023-03-21T08:58:53.984Z,22.07
2023-03-21T09:01:23.677Z,22.28
2023-03-21T09:03:52.025Z,22.41
2023-03-21T09:06:20.277Z,22.36
2023-03-21T09:08:48.670Z,22.59
2023-03-21T09:11:16.991Z,22.62
2023-03-21T09:13:45.251Z,22.66
2023-03-21T09:16:13.626Z,22.85
2023-03-21T09:18:47.255Z,22.87
2023-03-21T09:21:17.135Z,22.92
2023-03-21T09:23:46.248Z,23.13
2023-03-21T09:26:15.505Z,23.15
2023-03-21T09:28:46.206Z,23.17
2023-03-21T09:31:16.470Z,23.14
2023-03-21T09:33:46.230Z,22.99
2023-03-21T09:36:15.502Z,22.99
2023-03-21T09:38:45.464Z,22.61
2023-03-21T09:41:30.817Z,23.11
2023-03-21T09:44:08.237Z,23.16
2023-03-21T09:46:42.745Z,22.89
2023-03-21T09:49:18.158Z,23.32
2023-03-21T09:51:48.836Z,23.34
2023-03-21T09:54:20.934Z,22.69
2023-03-21T09:56:51.245Z,22.66
2023-03-21T09:59:25.127Z,22.83
2023-03-21T10:01:55.376Z,22.69
2023-03-21T10:04:25.143Z,22.80
2023-03-21T10:06:57.956Z,22.97
2023-03-21T10:09:28.269Z,22.75
2023-03-21T10:12:00.284Z,22.35
2023-03-21T10:14:32.302Z,22.94
2023-03-21T10:17:02.589Z,23.17
2023-03-21T10:19:32.271Z,23.35
2023-03-21T10:22:02.693Z,23.49
2023-03-21T10:24:34.654Z,23.47
2023-03-21T10:27:04.393Z,23.43
2023-03-21T10:29:37.185Z,22.92
2023-03-21T10:32:06.267Z,23.25
2023-03-21T10:34:38.946Z,22.55
2023-03-21T10:37:07.631Z,22.83
2023-03-21T10:39:37.810Z,23.08
2023-03-21T10:42:06.783Z,22.30
2023-03-21T10:44:36.124Z,22.66
2023-03-21T10:47:07.036Z,22.62
2023-03-21T10:49:56.425Z,22.44
2023-03-21T10:52:28.917Z,22.21
2023-03-21T10:55:09.587Z,22.80
2023-03-21T10:57:38.863Z,22.60
2023-03-21T11:00:17.022Z,22.69
2023-03-21T11:02:49.300Z,22.00
2023-03-21T11:05:24.276Z,21.86
2023-03-21T11:08:04.551Z,22.13
2023-03-21T11:10:34.159Z,22.44
2023-03-21T11:13:05.561Z,22.74
2023-03-21T11:15:39.619Z,22.85
2023-03-21T11:18:16.390Z,22.67
2023-03-21T11:20:51.132Z,22.77
2023-03-21T11:23:20.857Z,22.83
2023-03-21T11:25:50.478Z,22.77
2023-03-21T11:28:21.774Z,22.66
2023-03-21T11:30:51.852Z,23.08
2023-03-21T11:33:21.667Z,23.21
2023-03-21T11:36:02.180Z,23.15
2023-03-21T11:38:31.760Z,23.51
2023-03-21T11:41:01.178Z,23.49
2023-03-21T11:43:33.044Z,23.49
2023-03-21T11:46:06.479Z,23.69
2023-03-21T11:48:40.617Z,23.91
2023-03-21T11:51:19.478Z,23.72
2023-03-21T11:53:51.614Z,23.77
2023-03-21T11:56:24.455Z,23.91
2023-03-21T11:59:03.575Z,23.88
2023-03-21T12:01:39.290Z,23.39
2023-03-21T12:04:23.875Z,23.88
2023-03-21T12:06:55.395Z,24.35
2023-03-21T12:09:41.879Z,24.38
2023-03-21T12:12:36.482Z,24.14
2023-03-21T12:15:14.149Z,24.15
2023-03-21T12:17:51.649Z,24.44
2023-03-21T12:20:26.102Z,24.59
2023-03-21T12:23:06.755Z,24.36
2023-03-21T12:25:42.055Z,24.10
2023-03-21T12:28:32.019Z,24.26
2023-03-21T12:31:09.146Z,24.06
2023-03-21T12:33:58.275Z,24.62
2023-03-21T12:36:37.075Z,24.84
2023-03-21T12:39:15.155Z,24.47
2023-03-21T12:41:45.729Z,24.45
2023-03-21T12:44:16.464Z,24.97
2023-03-21T12:46:46.966Z,24.84
2023-03-21T12:49:15.991Z,24.37
2023-03-21T12:51:46.383Z,24.83
2023-03-21T12:54:18.642Z,22.89
2023-03-21T12:56:51.552Z,23.62
2023-03-21T12:59:26.148Z,24.67
2023-03-21T13:01:57.426Z,25.40
2023-03-21T13:04:48.947Z,25.98
2023-03-21T13:07:20.172Z,25.74
2023-03-21T13:09:51.296Z,25.96
2023-03-21T13:12:32.515Z,25.28
2023-03-21T13:15:23.229Z,24.78
2023-03-21T13:17:55.886Z,24.46
2023-03-21T13:20:28.111Z,25.17
2023-03-21T13:22:56.528Z,24.40
2023-03-21T13:25:28.203Z,24.21
2023-03-21T13:28:01.424Z,24.75
2023-03-21T13:30:32.343Z,24.93
2023-03-21T13:33:06.823Z,24.96
2023-03-21T13:35:38.336Z,24.23
2023-03-21T13:38:12.913Z,24.16
2023-03-21T13:40:45.388Z,24.37
2023-03-21T13:43:36.241Z,24.11
2023-03-21T13:46:08.286Z,24.45
2023-03-21T13:49:00.338Z,24.36
2023-03-21T13:51:47.450Z,25.15
2023-03-21T13:54:22.545Z,24.46
2023-03-21T13:56:54.024Z,24.66
2023-03-21T13:59:38.766Z,25.12
2023-03-21T14:02:23.467Z,25.41
2023-03-21T14:05:04.968Z,25.34
2023-03-21T14:07:35.467Z,25.48
2023-03-21T14:10:06.444Z,25.55
2023-03-21T14:12:41.969Z,24.88
2023-03-21T14:15:17.934Z,24.32
2023-03-21T14:17:56.935Z,23.96
2023-03-21T14:20:27.879Z,24.77
2023-03-21T14:22:56.503Z,24.39
2023-03-21T14:25:31.448Z,24.75
2023-03-21T14:28:05.961Z,24.96
2023-03-21T14:30:36.213Z,25.33
2023-03-21T14:33:08.745Z,24.12
2023-03-21T14:35:37.460Z,24.42
2023-03-21T14:38:09.034Z,24.72
2023-03-21T14:40:37.583Z,24.76
2023-03-21T14:43:07.994Z,24.13
2023-03-21T14:45:38.045Z,23.95
2023-03-21T14:48:09.753Z,24.05
2023-03-21T14:50:41.634Z,24.59
2023-03-21T14:53:17.214Z,24.19
2023-03-21T14:55:47.795Z,25.01
2023-03-21T14:58:19.112Z,25.28
2023-03-21T15:00:50.138Z,23.80
2023-03-21T15:03:19.479Z,23.71
2023-03-21T15:05:48.107Z,24.12
2023-03-21T15:08:18.596Z,23.69
2023-03-21T15:11:06.210Z,24.31
2023-03-21T15:13:38.118Z,24.47
2023-03-21T15:16:07.357Z,24.57
2023-03-21T15:18:38.350Z,24.54
2023-03-21T15:21:09.780Z,24.24
2023-03-21T15:23:40.197Z,23.66
2023-03-21T15:26:08.922Z,23.77
2023-03-21T15:28:38.557Z,24.30
2023-03-21T15:31:08.041Z,24.39
2023-03-21T15:33:36.377Z,23.63
2023-03-21T15:36:10.736Z,23.99
2023-03-21T15:38:40.699Z,22.76
2023-03-21T15:41:16.544Z,22.43
2023-03-21T15:43:46.879Z,22.25
2023-03-21T15:46:17.788Z,22.38
2023-03-21T15:48:46.827Z,23.41
2023-03-21T15:51:22.142Z,22.96
2023-03-21T15:53:54.015Z,22.91
2023-03-21T15:56:23.464Z,22.58
2023-03-21T15:58:54.180Z,22.63
2023-03-21T16:01:26.315Z,22.60
2023-03-21T16:03:57.609Z,22.89
2023-03-21T16:06:33.473Z,22.88
2023-03-21T16:09:11.386Z,23.18
2023-03-21T16:11:40.834Z,23.22
2023-03-21T16:14:10.593Z,22.28
2023-03-21T16:16:38.973Z,22.42
2023-03-21T16:19:08.319Z,22.66
2023-03-21T16:21:38.260Z,22.97
2023-03-21T16:24:08.729Z,22.94
2023-03-21T16:26:39.533Z,23.27
2023-03-21T16:29:08.583Z,22.98
2023-03-21T16:31:38.191Z,22.86
2023-03-21T16:34:07.162Z,22.87
2023-03-21T16:36:37.687Z,22.86
2023-03-21T16:39:09.247Z,22.40
2023-03-21T16:41:37.352Z,22.71
2023-03-21T16:44:05.578Z,22.91
2023-03-21T16:46:34.386Z,22.45
2023-03-21T16:49:04.432Z,22.54
2023-03-21T16:51:34.297Z,22.66
2023-03-21T16:54:03.142Z,22.75
2023-03-21T16:56:36.175Z,22.75
2023-03-21T16:59:05.812Z,22.82
2023-03-21T17:01:35.983Z,22.93
2023-03-21T17:04:06.047Z,22.86
2023-03-21T17:06:34.531Z,22.90
2023-03-21T17:09:04.654Z,22.97
2023-03-21T17:11:36.162Z,23.02
2023-03-21T17:14:04.528Z,22.82
2023-03-21T17:16:33.093Z,22.74
2023-03-21T17:19:01.824Z,22.78
2023-03-21T17:21:31.889Z,22.61
2023-03-21T17:24:00.828Z,22.60
2023-03-21T17:26:29.799Z,22.49
2023-03-21T17:28:58.164Z,22.38
2023-03-21T17:31:27.872Z,22.41
2023-03-21T17:33:56.272Z,22.52
2023-03-21T17:36:27.814Z,22.56
2023-03-21T17:38:57.819Z,22.45
2023-03-21T17:41:26.186Z,22.40
2023-03-21T17:43:55.797Z,22.41
2023-03-21T17:46:27.071Z,22.27
2023-03-21T17:48:56.175Z,22.24
2023-03-21T17:51:29.963Z,22.15
2023-03-21T17:54:00.410Z,22.19
2023-03-21T17:56:29.933Z,22.20
2023-03-21T17:58:59.602Z,22.00
2023-03-21T18:01:28.347Z,21.95
2023-03-21T18:03:56.675Z,21.97
2023-03-21T18:06:27.022Z,21.92
2023-03-21T18:08:55.852Z,21.83
2023-03-21T18:11:25.777Z,21.76
2023-03-21T18:14:06.563Z,21.71
2023-03-21T18:16:42.674Z,21.59
2023-03-21T18:19:12.868Z,21.49
2023-03-21T18:21:44.900Z,21.42
2023-03-21T18:24:13.587Z,21.34
2023-03-21T18:26:43.420Z,21.28
2023-03-21T18:32:07.050Z,21.23
2023-03-21T18:34:37.425Z,21.21
2023-03-21T18:37:07.972Z,21.13
2023-03-21T18:39:36.674Z,21.00
2023-03-21T18:42:07.494Z,20.81
2023-03-21T18:44:45.512Z,20.65
2023-03-21T18:47:14.633Z,20.52
2023-03-21T18:52:32.020Z,20.45
2023-03-21T18:55:00.515Z,20.44
2023-03-21T18:57:38.902Z,20.42
2023-03-21T19:00:14.697Z,20.42
2023-03-21T19:02:47.773Z,20.40
2023-03-21T19:05:17.772Z,20.34
2023-03-21T19:07:46.630Z,20.32
2023-03-21T19:10:18.946Z,20.32
2023-03-21T19:12:49.616Z,20.31
2023-03-21T19:15:19.731Z,20.34
2023-03-21T19:20:37.890Z,20.27
2023-03-21T19:23:08.234Z,20.24
2023-03-21T19:25:37.913Z,20.20
2023-03-21T19:28:08.221Z,20.19
2023-03-21T19:30:36.861Z,20.08
2023-03-21T19:33:05.398Z,20.09
2023-03-21T19:35:37.273Z,20.12
2023-03-21T19:38:06.097Z,20.20
2023-03-21T19:40:34.539Z,20.11
2023-03-21T19:43:21.626Z,20.08
2023-03-21T19:45:52.659Z,20.07
2023-03-21T19:48:21.223Z,20.02
2023-03-21T19:51:24.300Z,20.01
2023-03-21T19:53:38.877Z,20.00
2023-03-21T19:56:19.710Z,19.93
2023-03-21T19:58:49.648Z,19.92
2023-03-21T20:01:19.354Z,19.87
2023-03-21T20:03:47.698Z,19.84
2023-03-21T20:06:16.274Z,19.82
2023-03-21T20:11:32.875Z,19.80
2023-03-21T20:14:03.056Z,19.78
2023-03-21T20:16:35.884Z,19.68
2023-03-21T20:19:05.957Z,19.60
2023-03-21T20:21:44.382Z,19.48
2023-03-21T20:24:14.326Z,19.49
2023-03-21T20:26:42.705Z,19.47
2023-03-21T20:30:03.854Z,19.40
2023-03-21T20:32:00.698Z,19.29
2023-03-21T20:34:30.550Z,19.20
2023-03-21T20:36:59.294Z,19.13
2023-03-21T20:39:29.820Z,19.08
2023-03-21T20:41:59.564Z,19.08
2023-03-21T20:44:51.735Z,18.93
2023-03-21T20:47:17.648Z,18.93
2023-03-21T20:49:45.888Z,18.90
2023-03-21T20:52:54.478Z,18.83
2023-03-21T20:55:03.620Z,18.74
2023-03-21T20:57:32.614Z,18.69
2023-03-21T21:00:00.841Z,18.66
2023-03-21T21:02:30.602Z,18.61
2023-03-21T21:05:24.108Z,18.54
2023-03-21T21:07:48.950Z,18.46
2023-03-21T21:10:18.647Z,18.41
2023-03-21T21:12:46.901Z,18.36
2023-03-21T21:15:17.015Z,18.20
2023-03-21T21:18:04.939Z,18.07
2023-03-21T21:20:35.310Z,17.97
2023-03-21T21:23:04.027Z,17.91
2023-03-21T21:25:33.753Z,17.87
2023-03-21T21:28:02.624Z,17.84
2023-03-21T21:30:31.880Z,17.77
2023-03-21T21:33:01.716Z,17.70
2023-03-21T21:35:30.033Z,17.61
2023-03-21T21:37:58.376Z,17.53
2023-03-21T21:40:26.712Z,17.46
2023-03-21T21:42:55.044Z,17.38
2023-03-21T21:45:23.440Z,17.29
2023-03-21T21:47:51.977Z,17.16
2023-03-21T21:50:22.628Z,17.12
2023-03-21T21:52:54.404Z,17.21
2023-03-21T21:55:22.825Z,17.00
2023-03-21T21:57:51.367Z,16.91
2023-03-21T22:00:20.891Z,16.79
2023-03-21T22:02:49.234Z,16.63
2023-03-21T22:05:18.984Z,16.57
2023-03-21T22:07:49.328Z,16.49
2023-03-21T22:10:17.696Z,16.28
2023-03-21T22:12:46.167Z,16.13
2023-03-21T22:15:15.067Z,16.08
2023-03-21T22:17:43.341Z,16.01
2023-03-21T22:20:14.650Z,16.05
2023-03-21T22:22:42.892Z,15.92
2023-03-21T22:25:14.485Z,15.92
2023-03-21T22:27:42.758Z,15.81
2023-03-21T22:30:13.817Z,15.85
2023-03-21T22:32:42.263Z,15.74
2023-03-21T22:35:10.994Z,15.72
2023-03-21T22:37:40.830Z,15.69
2023-03-21T22:40:11.093Z,15.65
2023-03-21T22:42:41.202Z,15.61
2023-03-21T22:45:11.152Z,15.50
2023-03-21T22:47:39.468Z,15.30
2023-03-21T22:50:08.993Z,15.27
2023-03-21T22:52:37.453Z,15.10
2023-03-21T22:55:07.051Z,15.00
2023-03-21T22:57:35.430Z,14.83
2023-03-21T23:00:12.977Z,14.90
2023-03-21T23:02:41.357Z,14.68
2023-03-21T23:05:10.470Z,14.73
2023-03-21T23:07:38.783Z,14.63
2023-03-21T23:10:08.911Z,14.68
2023-03-21T23:12:37.487Z,14.52
2023-03-21T23:15:09.022Z,14.62
2023-03-21T23:17:38.017Z,14.41
2023-03-21T23:20:07.200Z,14.37
2023-03-21T23:22:36.055Z,14.29
2023-03-21T23:25:04.882Z,14.24
2023-03-21T23:27:35.240Z,14.17
2023-03-21T23:30:04.920Z,14.14
2023-03-21T23:32:34.714Z,14.15
2023-03-21T23:35:02.978Z,13.89
2023-03-21T23:37:31.201Z,13.82
2023-03-21T23:39:59.474Z,13.75
2023-03-21T23:42:30.084Z,13.90
2023-03-21T23:44:58.142Z,14.19
2023-03-21T23:47:26.331Z,13.71
2023-03-21T23:49:55.937Z,13.82
2023-03-21T23:52:24.169Z,13.65
2023-03-21T23:54:52.523Z,13.62
2023-03-21T23:57:21.875Z,13.62
2023-03-21T23:59:50.213Z,13.56
